createdAt,value
2018-04-08T00:00:14.613Z,16.40
2018-04-08T00:03:15.877Z,16.30
2018-04-08T00:06:17.167Z,16.30
2018-04-08T00:09:18.430Z,16.20
2018-04-08T00:12:20.439Z,16.10
2018-04-08T00:15:21.707Z,16.10
2018-04-08T00:18:23.018Z,16.20
2018-04-08T00:21:24.280Z,16.10
2018-04-08T00:24:25.614Z,16.20
2018-04-08T00:27:26.911Z,16.10
2018-04-08T00:30:28.209Z,16.10
2018-04-08T00:33:30.194Z,16.10
2018-04-08T00:36:32.211Z,16.00
2018-04-08T00:39:33.472Z,15.90
2018-04-08T00:42:35.558Z,16.00
2018-04-08T00:45:37.622Z,15.90
2018-04-08T00:48:38.925Z,15.90
2018-04-08T00:51:40.207Z,16.00
2018-04-08T00:54:41.519Z,15.90
2018-04-08T00:57:42.804Z,16.00
2018-04-08T01:00:44.083Z,16.10
2018-04-08T01:03:45.394Z,16.00
2018-04-08T01:06:47.466Z,15.90
2018-04-08T01:09:49.462Z,15.90
2018-04-08T01:12:50.698Z,15.90
2018-04-08T01:15:51.980Z,15.80
2018-04-08T01:18:53.978Z,15.50
2018-04-08T01:21:55.970Z,15.50
2018-04-08T01:24:57.934Z,15.50
2018-04-08T01:27:59.206Z,15.50
2018-04-08T01:31:00.502Z,15.50
2018-04-08T01:34:01.766Z,15.40
2018-04-08T01:37:03.055Z,15.50
2018-04-08T01:40:04.331Z,15.60
2018-04-08T01:43:05.594Z,15.40
2018-04-08T01:46:06.840Z,15.40
2018-04-08T01:49:08.155Z,15.40
2018-04-08T01:52:10.150Z,15.40
2018-04-08T01:55:11.431Z,15.40
2018-04-08T01:58:12.722Z,15.50
2018-04-08T02:01:14.002Z,15.40
2018-04-08T02:04:15.272Z,15.30
2018-04-08T02:07:16.534Z,15.30
2018-04-08T02:10:17.855Z,15.20
2018-04-08T02:13:19.111Z,15.10
2018-04-08T02:16:20.336Z,15.20
2018-04-08T02:19:22.385Z,15.40
2018-04-08T02:22:23.656Z,15.40
2018-04-08T02:25:24.907Z,15.40
2018-04-08T02:28:27.213Z,15.40
2018-04-08T02:31:28.493Z,15.40
2018-04-08T02:34:29.725Z,15.30
2018-04-08T02:37:30.970Z,15.40
2018-04-08T02:40:32.219Z,15.30
2018-04-08T02:43:33.487Z,15.20
2018-04-08T02:46:34.732Z,15.20
2018-04-08T02:49:36.003Z,15.10
2018-04-08T02:52:37.257Z,15.20
2018-04-08T02:55:38.513Z,15.10
2018-04-08T02:58:39.752Z,15.20
2018-04-08T03:01:41.024Z,15.40
2018-04-08T03:04:42.288Z,15.30
2018-04-08T03:07:43.562Z,15.50
2018-04-08T03:10:44.843Z,15.40
2018-04-08T03:13:46.088Z,15.30
2018-04-08T03:16:47.354Z,15.40
2018-04-08T03:19:48.666Z,15.60
2018-04-08T03:22:49.996Z,15.60
2018-04-08T03:25:52.018Z,15.70
2018-04-08T03:28:53.270Z,15.70
2018-04-08T03:31:55.290Z,15.60
2018-04-08T03:34:56.603Z,15.60
2018-04-08T03:37:57.922Z,15.70
2018-04-08T03:40:59.146Z,15.80
2018-04-08T03:44:00.429Z,15.80
2018-04-08T03:47:01.694Z,15.70
2018-04-08T03:50:02.992Z,15.70
2018-04-08T03:53:04.266Z,15.70
2018-04-08T03:56:05.543Z,15.80
2018-04-08T03:59:06.805Z,15.80
2018-04-08T04:02:08.120Z,15.80
2018-04-08T04:05:09.379Z,15.80
2018-04-08T04:08:10.623Z,15.80
2018-04-08T04:11:12.601Z,15.90
2018-04-08T04:14:13.886Z,15.90
2018-04-08T04:17:15.888Z,15.70
2018-04-08T04:20:36.323Z,15.70
2018-04-08T04:23:56.176Z,15.70
2018-04-08T04:26:57.471Z,15.80
2018-04-08T04:29:58.722Z,15.80
2018-04-08T04:33:00.010Z,15.80
2018-04-08T04:36:01.244Z,15.70
2018-04-08T04:39:03.297Z,15.70
2018-04-08T04:42:04.577Z,15.60
2018-04-08T04:45:05.833Z,15.60
2018-04-08T04:48:07.096Z,15.50
2018-04-08T04:51:08.426Z,15.50
2018-04-08T04:54:09.675Z,15.50
2018-04-08T04:57:10.946Z,15.60
2018-04-08T05:00:12.263Z,15.50
2018-04-08T05:03:13.569Z,15.60
2018-04-08T05:06:15.628Z,15.60
2018-04-08T05:09:16.892Z,15.60
2018-04-08T05:12:18.905Z,15.60
2018-04-08T05:15:21.556Z,15.60
2018-04-08T05:18:23.547Z,15.60
2018-04-08T05:21:25.612Z,15.70
2018-04-08T05:24:27.233Z,15.70
2018-04-08T05:27:29.239Z,15.70
2018-04-08T05:30:31.239Z,15.60
2018-04-08T05:33:33.242Z,15.70
2018-04-08T05:36:34.506Z,15.70
2018-04-08T05:39:36.556Z,15.60
2018-04-08T05:42:37.841Z,15.60
2018-04-08T05:45:39.133Z,15.70
2018-04-08T05:48:40.400Z,15.80
2018-04-08T05:51:41.677Z,15.80
2018-04-08T05:54:42.915Z,15.90
2018-04-08T05:57:44.215Z,15.90
2018-04-08T06:00:45.488Z,15.90
2018-04-08T06:03:46.772Z,15.90
2018-04-08T06:06:48.081Z,16.10
2018-04-08T06:09:49.342Z,16.10
2018-04-08T06:12:50.626Z,16.30
2018-04-08T06:15:51.905Z,16.30
2018-04-08T06:18:53.180Z,16.30
2018-04-08T06:21:54.463Z,16.30
2018-04-08T06:24:55.779Z,16.30
2018-04-08T06:27:57.809Z,16.30
2018-04-08T06:30:59.097Z,16.40
2018-04-08T06:34:00.345Z,16.40
2018-04-08T06:37:02.361Z,16.40
2018-04-08T06:40:03.669Z,16.40
2018-04-08T06:43:05.021Z,16.40
2018-04-08T06:46:06.306Z,16.40
2018-04-08T06:49:07.590Z,16.40
2018-04-08T06:52:08.971Z,16.50
2018-04-08T06:55:10.227Z,16.50
2018-04-08T06:58:11.583Z,16.60
2018-04-08T07:01:12.865Z,16.70
2018-04-08T07:04:14.929Z,16.80
2018-04-08T07:07:16.207Z,16.80
2018-04-08T07:10:17.509Z,16.80
2018-04-08T07:13:18.776Z,17.10
2018-04-08T07:16:20.147Z,17.20
2018-04-08T07:19:21.410Z,17.40
2018-04-08T07:22:22.655Z,17.50
2018-04-08T07:25:24.707Z,17.60
2018-04-08T07:28:28.900Z,17.60
2018-04-08T07:31:30.943Z,17.70
2018-04-08T07:34:32.210Z,17.70
2018-04-08T07:37:33.533Z,17.90
2018-04-08T07:40:34.808Z,17.90
2018-04-08T07:43:36.037Z,18.00
2018-04-08T07:46:37.356Z,18.10
2018-04-08T07:49:38.728Z,18.00
2018-04-08T07:52:39.996Z,18.10
2018-04-08T07:55:41.282Z,18.00
2018-04-08T07:58:42.587Z,18.00
2018-04-08T08:01:43.826Z,18.10
2018-04-08T08:04:45.100Z,18.00
2018-04-08T08:07:46.365Z,18.00
2018-04-08T08:10:47.636Z,18.10
2018-04-08T08:13:48.906Z,18.10
2018-04-08T08:16:50.204Z,18.20
2018-04-08T08:19:51.464Z,18.20
2018-04-08T08:22:52.767Z,18.30
2018-04-08T08:25:54.101Z,18.30
2018-04-08T08:28:56.732Z,18.40
2018-04-08T08:31:58.853Z,18.40
2018-04-08T08:35:00.900Z,18.40
2018-04-08T08:38:09.511Z,18.40
2018-04-08T08:41:10.823Z,18.40
2018-04-08T08:44:12.121Z,18.50
2018-04-08T08:47:14.154Z,18.60
2018-04-08T08:50:15.424Z,18.50
2018-04-08T08:53:16.707Z,18.60
2018-04-08T08:56:17.970Z,18.70
2018-04-08T08:59:19.320Z,18.80
2018-04-08T09:02:20.603Z,18.90
2018-04-08T09:05:21.909Z,19.00
2018-04-08T09:08:23.195Z,19.10
2018-04-08T09:11:24.484Z,19.20
2018-04-08T09:14:25.751Z,19.30
2018-04-08T09:17:27.886Z,19.30
2018-04-08T09:24:12.450Z,19.50
2018-04-08T09:27:13.777Z,19.30
2018-04-08T09:30:15.070Z,19.80
2018-04-08T09:33:16.361Z,20.00
2018-04-08T09:36:17.694Z,19.90
2018-04-08T09:39:18.928Z,19.90
2018-04-08T09:42:20.282Z,19.80
2018-04-08T09:45:21.574Z,20.00
2018-04-08T09:48:22.851Z,20.20
2018-04-08T09:51:24.119Z,20.40
2018-04-08T09:54:25.393Z,20.50
2018-04-08T09:57:27.593Z,20.80
2018-04-08T10:04:08.736Z,20.70
2018-04-08T10:07:10.010Z,20.60
2018-04-08T10:10:11.288Z,20.70
2018-04-08T10:13:12.646Z,20.70
2018-04-08T10:16:13.936Z,20.70
2018-04-08T10:19:15.228Z,20.90
2018-04-08T10:22:16.596Z,20.90
2018-04-08T10:25:17.885Z,21.30
2018-04-08T10:28:19.154Z,21.30
2018-04-08T10:31:20.430Z,21.40
2018-04-08T10:34:21.683Z,21.50
2018-04-08T10:37:22.950Z,21.70
2018-04-08T10:40:24.223Z,21.80
2018-04-08T10:43:25.490Z,21.90
2018-04-08T10:46:27.589Z,21.90
2018-04-08T10:49:28.930Z,22.30
2018-04-08T10:52:30.298Z,22.40
2018-04-08T10:55:33.138Z,22.50
2018-04-08T10:58:34.375Z,22.40
2018-04-08T11:01:35.988Z,22.70
2018-04-08T11:04:39.461Z,22.90
2018-04-08T11:07:40.715Z,22.90
2018-04-08T11:10:42.078Z,23.10
2018-04-08T11:13:43.320Z,23.10
2018-04-08T11:16:44.591Z,23.00
2018-04-08T11:19:45.865Z,22.90
2018-04-08T11:22:47.121Z,22.90
2018-04-08T11:25:49.133Z,23.20
2018-04-08T11:28:50.371Z,23.20
2018-04-08T11:31:51.652Z,23.30
2018-04-08T11:34:52.898Z,23.40
2018-04-08T11:37:54.163Z,23.60
2018-04-08T11:40:55.408Z,23.70
2018-04-08T11:43:57.392Z,23.60
2018-04-08T11:46:58.727Z,23.60
2018-04-08T11:49:59.996Z,23.80
2018-04-08T11:53:01.224Z,23.50
2018-04-08T11:56:02.483Z,23.40
2018-04-08T11:59:03.765Z,23.30
2018-04-08T12:02:05.068Z,23.30
2018-04-08T12:05:06.293Z,23.40
2018-04-08T12:08:07.544Z,23.70
2018-04-08T12:11:09.529Z,24.20
2018-04-08T12:14:11.515Z,24.30
2018-04-08T12:17:13.490Z,24.20
2018-04-08T12:20:14.773Z,24.20
2018-04-08T12:23:16.031Z,24.20
2018-04-08T12:26:18.151Z,24.40
2018-04-08T12:29:19.399Z,24.60
2018-04-08T12:32:20.666Z,24.50
2018-04-08T12:35:21.906Z,24.60
2018-04-08T12:38:23.902Z,24.70
2018-04-08T12:41:25.897Z,24.60
2018-04-08T12:44:27.892Z,24.90
2018-04-08T12:47:29.890Z,25.20
2018-04-08T12:50:31.901Z,25.40
2018-04-08T12:53:33.169Z,25.30
2018-04-08T12:56:35.174Z,25.50
2018-04-08T12:59:36.435Z,25.50
2018-04-08T13:02:38.446Z,25.50
2018-04-08T13:05:47.326Z,25.60
2018-04-08T13:08:48.574Z,25.60
2018-04-08T13:11:50.567Z,25.70
2018-04-08T13:14:52.527Z,25.70
2018-04-08T13:17:53.786Z,25.60
2018-04-08T13:20:55.052Z,25.80
2018-04-08T13:23:56.938Z,25.90
2018-04-08T13:26:58.183Z,26.00
2018-04-08T13:29:59.431Z,26.10
2018-04-08T13:33:00.686Z,26.10
2018-04-08T13:36:01.908Z,26.20
2018-04-08T13:39:03.184Z,26.10
2018-04-08T13:42:04.426Z,26.20
2018-04-08T13:45:05.675Z,26.00
2018-04-08T13:48:06.929Z,26.10
2018-04-08T13:51:08.915Z,26.20
2018-04-08T13:54:10.161Z,26.20
2018-04-08T13:57:11.423Z,26.20
2018-04-08T14:00:12.662Z,26.00
2018-04-08T14:03:14.685Z,26.20
2018-04-08T14:06:15.912Z,26.20
2018-04-08T14:09:17.185Z,26.40
2018-04-08T14:12:18.429Z,26.50
2018-04-08T14:15:19.695Z,26.70
2018-04-08T14:18:20.939Z,26.70
2018-04-08T14:21:22.945Z,26.80
2018-04-08T14:24:24.935Z,26.70
2018-04-08T14:27:27.896Z,26.70
2018-04-08T14:30:29.132Z,26.70
2018-04-08T14:33:30.402Z,26.60
2018-04-08T14:36:33.142Z,26.30
2018-04-08T14:39:35.113Z,26.40
2018-04-08T14:42:36.366Z,26.40
2018-04-08T14:45:37.639Z,26.40
2018-04-08T14:48:38.910Z,26.20
2018-04-08T14:51:40.175Z,26.50
2018-04-08T14:54:41.402Z,26.50
2018-04-08T14:57:42.679Z,26.70
2018-04-08T15:00:43.958Z,26.60
2018-04-08T15:03:45.208Z,26.60
2018-04-08T15:06:46.467Z,26.70
2018-04-08T15:09:47.727Z,26.80
2018-04-08T15:12:48.964Z,27.00
2018-04-08T15:15:50.983Z,26.90
2018-04-08T15:18:52.983Z,26.90
2018-04-08T15:21:55.021Z,27.00
2018-04-08T15:24:57.097Z,27.00
2018-04-08T15:27:58.394Z,26.80
2018-04-08T15:30:59.634Z,26.70
2018-04-08T15:34:01.963Z,26.50
2018-04-08T15:37:03.410Z,26.40
2018-04-08T15:40:05.201Z,26.20
2018-04-08T15:43:07.710Z,25.90
2018-04-08T15:46:10.035Z,25.90
2018-04-08T15:49:11.643Z,25.80
2018-04-08T15:52:14.167Z,25.60
2018-04-08T15:55:15.400Z,25.60
2018-04-08T15:58:17.373Z,25.60
2018-04-08T16:01:18.706Z,25.60
2018-04-08T16:04:19.936Z,25.70
2018-04-08T16:07:21.980Z,25.60
2018-04-08T16:10:23.210Z,25.50
2018-04-08T16:13:24.689Z,25.50
2018-04-08T16:16:26.720Z,25.40
2018-04-08T16:19:28.486Z,25.40
2018-04-08T16:22:31.497Z,25.10
2018-04-08T16:25:33.103Z,25.00
2018-04-08T16:28:34.895Z,24.80
2018-04-08T16:31:36.173Z,24.60
2018-04-08T16:34:39.710Z,24.20
2018-04-08T16:37:41.005Z,24.20
2018-04-08T16:40:42.852Z,24.10
2018-04-08T16:43:44.982Z,23.80
2018-04-08T16:46:46.534Z,23.80
2018-04-08T16:49:48.546Z,23.50
2018-04-08T16:52:57.728Z,23.30
2018-04-08T16:55:59.119Z,23.30
2018-04-08T16:59:03.692Z,23.10
2018-04-08T17:02:05.775Z,23.10
2018-04-08T17:05:07.560Z,22.90
2018-04-08T17:08:09.274Z,22.60
2018-04-08T17:11:10.907Z,22.30
2018-04-08T17:14:13.379Z,22.10
2018-04-08T17:17:15.959Z,22.10
2018-04-08T17:20:17.777Z,22.10
2018-04-08T17:23:19.862Z,21.90
2018-04-08T17:26:21.154Z,21.80
2018-04-08T17:29:22.499Z,21.70
2018-04-08T17:32:23.810Z,21.60
2018-04-08T17:35:25.069Z,21.50
2018-04-08T17:38:27.079Z,21.40
2018-04-08T17:41:28.861Z,21.30
2018-04-08T17:44:30.123Z,21.20
2018-04-08T17:47:32.112Z,21.00
2018-04-08T17:50:35.205Z,20.90
2018-04-08T17:53:36.698Z,20.90
2018-04-08T17:56:38.050Z,20.80
2018-04-08T17:59:40.219Z,20.70
2018-04-08T18:02:42.180Z,20.70
2018-04-08T18:05:44.502Z,20.50
2018-04-08T18:08:45.891Z,20.50
2018-04-08T18:11:47.592Z,20.50
2018-04-08T18:14:49.321Z,20.40
2018-04-08T18:17:51.847Z,20.20
2018-04-08T18:20:53.632Z,20.20
2018-04-08T18:23:54.960Z,20.20
2018-04-08T18:26:57.527Z,20.20
2018-04-08T18:29:59.246Z,20.20
2018-04-08T18:33:00.592Z,20.00
2018-04-08T18:36:02.953Z,20.00
2018-04-08T18:39:05.546Z,20.00
2018-04-08T18:42:06.837Z,20.10
2018-04-08T18:45:08.649Z,19.90
2018-04-08T18:48:09.952Z,19.80
2018-04-08T18:51:11.676Z,19.70
2018-04-08T18:54:13.007Z,19.60
2018-04-08T18:57:14.815Z,19.60
2018-04-08T19:00:18.551Z,19.60
2018-04-08T19:03:21.052Z,19.60
2018-04-08T19:06:22.644Z,19.60
2018-04-08T19:09:24.008Z,19.60
2018-04-08T19:12:25.670Z,19.50
2018-04-08T19:15:28.347Z,19.50
2018-04-08T19:18:29.652Z,19.60
2018-04-08T19:21:31.116Z,19.50
2018-04-08T19:24:33.157Z,19.40
2018-04-08T19:27:35.395Z,19.40
2018-04-08T19:30:38.495Z,19.30
2018-04-08T19:33:39.820Z,19.30
2018-04-08T19:36:41.134Z,19.40
2018-04-08T19:39:42.388Z,19.20
2018-04-08T19:42:43.648Z,19.30
2018-04-08T19:45:45.735Z,19.30
2018-04-08T19:48:48.178Z,19.10
2018-04-08T19:51:50.026Z,19.10
2018-04-08T19:54:51.828Z,19.20
2018-04-08T19:57:53.372Z,19.30
2018-04-08T20:00:54.763Z,19.40
2018-04-08T20:03:56.766Z,19.40
2018-04-08T20:06:58.170Z,19.30
2018-04-08T20:09:59.522Z,19.40
2018-04-08T20:13:01.555Z,19.30
2018-04-08T20:16:02.894Z,19.20
2018-04-08T20:19:04.667Z,19.20
2018-04-08T20:22:05.986Z,19.20
2018-04-08T20:25:07.718Z,19.30
2018-04-08T20:28:09.455Z,19.00
2018-04-08T20:31:11.488Z,19.10
2018-04-08T20:34:13.608Z,19.10
2018-04-08T20:37:15.392Z,19.10
2018-04-08T20:40:17.012Z,18.90
2018-04-08T20:43:18.411Z,18.80
2018-04-08T20:46:19.655Z,18.60
2018-04-08T20:49:20.916Z,18.60
2018-04-08T20:52:22.190Z,18.40
2018-04-08T20:55:23.467Z,18.10
2018-04-08T20:58:24.728Z,17.90
2018-04-08T21:01:27.250Z,18.10
2018-04-08T21:04:28.606Z,18.10
2018-04-08T21:07:30.031Z,18.20
2018-04-08T21:10:31.350Z,18.40
2018-04-08T21:13:32.614Z,18.50
2018-04-08T21:16:34.613Z,18.30
2018-04-08T21:19:35.875Z,18.30
2018-04-08T21:22:37.145Z,18.20
2018-04-08T21:25:38.473Z,18.00
2018-04-08T21:28:39.711Z,17.70
2018-04-08T21:31:40.993Z,17.90
2018-04-08T21:34:42.275Z,17.90
2018-04-08T21:37:44.432Z,18.10
2018-04-08T21:40:46.408Z,17.70
2018-04-08T21:43:47.782Z,17.70
2018-04-08T21:46:49.118Z,17.70
2018-04-08T21:49:50.413Z,17.90
2018-04-08T21:52:52.227Z,18.20
2018-04-08T21:55:53.722Z,18.20
2018-04-08T21:58:55.745Z,17.90
2018-04-08T22:01:58.010Z,17.80
2018-04-08T22:04:59.298Z,17.80
2018-04-08T22:08:00.571Z,17.70
2018-04-08T22:11:01.823Z,17.90
2018-04-08T22:14:03.125Z,17.90
2018-04-08T22:17:04.331Z,17.70
2018-04-08T22:20:06.339Z,17.40
2018-04-08T22:23:07.575Z,17.40
2018-04-08T22:26:08.854Z,17.40
2018-04-08T22:29:10.848Z,17.60
2018-04-08T22:32:12.142Z,17.60
2018-04-08T22:35:13.379Z,17.50
2018-04-08T22:38:14.643Z,17.60
2018-04-08T22:41:15.894Z,17.70
2018-04-08T22:44:17.879Z,17.40
2018-04-08T22:47:19.840Z,17.40
2018-04-08T22:50:21.114Z,17.50
2018-04-08T22:53:22.360Z,17.40
2018-04-08T22:56:23.650Z,16.80
2018-04-08T22:59:24.895Z,16.90
2018-04-08T23:02:27.964Z,16.60
2018-04-08T23:05:29.227Z,16.60
2018-04-08T23:08:30.474Z,16.50
2018-04-08T23:11:32.566Z,16.70
2018-04-08T23:14:33.807Z,16.70
2018-04-08T23:17:35.206Z,17.00
2018-04-08T23:20:36.500Z,17.00
2018-04-08T23:23:38.532Z,16.90
2018-04-08T23:26:39.784Z,16.90
2018-04-08T23:29:41.771Z,16.90
2018-04-08T23:32:43.036Z,16.90
2018-04-08T23:35:59.251Z,16.90
2018-04-08T23:39:01.263Z,16.40
2018-04-08T23:42:02.554Z,16.40
2018-04-08T23:45:03.853Z,16.50
2018-04-08T23:48:05.847Z,16.30
2018-04-08T23:51:07.839Z,16.30
2018-04-08T23:54:09.813Z,16.10
2018-04-08T23:57:11.051Z,16.00
